sensor_id;sensor_type;location;lat;lon;timestamp;temperature;humidity
9980;DHT22;5030;51.532;6.766;2022-11-02T00:01:17;12.90;99.90
9980;DHT22;5030;51.532;6.766;2022-11-02T00:03:44;12.90;99.90
9980;DHT22;5030;51.532;6.766;2022-11-02T00:06:10;12.80;99.90
9980;DHT22;5030;51.532;6.766;2022-11-02T00:08:36;12.70;99.90
9980;DHT22;5030;51.532;6.766;2022-11-02T00:11:01;12.80;99.90
9980;DHT22;5030;51.532;6.766;2022-11-02T00:13:27;12.80;99.90
9980;DHT22;5030;51.532;6.766;2022-11-02T00:15:53;12.90;99.90
9980;DHT22;5030;51.532;6.766;2022-11-02T00:18:19;12.90;99.90
9980;DHT22;5030;51.532;6.766;2022-11-02T00:20:44;13.00;99.90
9980;DHT22;5030;51.532;6.766;2022-11-02T00:23:11;13.00;99.90
9980;DHT22;5030;51.532;6.766;2022-11-02T00:25:43;13.00;99.90
9980;DHT22;5030;51.532;6.766;2022-11-02T00:28:09;12.90;99.90
9980;DHT22;5030;51.532;6.766;2022-11-02T00:30:36;12.90;99.90
9980;DHT22;5030;51.532;6.766;2022-11-02T00:33:02;12.80;99.90
9980;DHT22;5030;51.532;6.766;2022-11-02T00:35:27;12.80;99.90
9980;DHT22;5030;51.532;6.766;2022-11-02T00:37:53;12.70;99.90
9980;DHT22;5030;51.532;6.766;2022-11-02T00:40:19;12.80;99.90
9980;DHT22;5030;51.532;6.766;2022-11-02T00:42:44;12.70;99.90
9980;DHT22;5030;51.532;6.766;2022-11-02T00:45:10;12.70;99.90
9980;DHT22;5030;51.532;6.766;2022-11-02T00:47:36;12.80;99.90
9980;DHT22;5030;51.532;6.766;2022-11-02T00:50:02;12.70;99.90
9980;DHT22;5030;51.532;6.766;2022-11-02T00:52:28;12.80;99.90
9980;DHT22;5030;51.532;6.766;2022-11-02T00:54:53;12.80;99.90
9980;DHT22;5030;51.532;6.766;2022-11-02T00:57:19;12.80;99.90
9980;DHT22;5030;51.532;6.766;2022-11-02T00:59:44;12.80;99.90
9980;DHT22;5030;51.532;6.766;2022-11-02T01:02:10;12.80;99.90
9980;DHT22;5030;51.532;6.766;2022-11-02T01:04:36;12.90;99.90
9980;DHT22;5030;51.532;6.766;2022-11-02T01:07:02;12.90;99.90
9980;DHT22;5030;51.532;6.766;2022-11-02T01:09:28;13.10;99.90
9980;DHT22;5030;51.532;6.766;2022-11-02T01:11:54;13.20;99.90
9980;DHT22;5030;51.532;6.766;2022-11-02T01:14:20;13.20;99.90
9980;DHT22;5030;51.532;6.766;2022-11-02T01:16:47;13.30;99.90
9980;DHT22;5030;51.532;6.766;2022-11-02T01:19:13;13.40;99.90
9980;DHT22;5030;51.532;6.766;2022-11-02T01:21:39;13.50;99.90
9980;DHT22;5030;51.532;6.766;2022-11-02T01:24:05;13.60;99.90
9980;DHT22;5030;51.532;6.766;2022-11-02T01:26:31;13.50;99.90
9980;DHT22;5030;51.532;6.766;2022-11-02T01:28:56;13.60;99.90
9980;DHT22;5030;51.532;6.766;2022-11-02T01:31:22;13.70;99.90
9980;DHT22;5030;51.532;6.766;2022-11-02T01:33:48;13.60;99.90
9980;DHT22;5030;51.532;6.766;2022-11-02T01:36:16;13.60;99.90
9980;DHT22;5030;51.532;6.766;2022-11-02T01:38:45;13.50;99.90
9980;DHT22;5030;51.532;6.766;2022-11-02T01:41:14;13.60;99.90
9980;DHT22;5030;51.532;6.766;2022-11-02T01:43:45;13.50;99.90
9980;DHT22;5030;51.532;6.766;2022-11-02T01:48:54;13.50;99.90
9980;DHT22;5030;51.532;6.766;2022-11-02T01:54:06;13.70;99.90
9980;DHT22;5030;51.532;6.766;2022-11-02T01:56:34;13.60;99.90
9980;DHT22;5030;51.532;6.766;2022-11-02T01:59:04;13.70;99.90
9980;DHT22;5030;51.532;6.766;2022-11-02T02:01:31;13.70;99.90
9980;DHT22;5030;51.532;6.766;2022-11-02T02:03:58;13.70;99.90
9980;DHT22;5030;51.532;6.766;2022-11-02T02:06:24;13.80;99.90
9980;DHT22;5030;51.532;6.766;2022-11-02T02:08:54;13.80;99.90
9980;DHT22;5030;51.532;6.766;2022-11-02T02:11:26;13.60;99.90
9980;DHT22;5030;51.532;6.766;2022-11-02T02:13:58;13.60;99.90
9980;DHT22;5030;51.532;6.766;2022-11-02T02:33:59;13.30;99.90
9980;DHT22;5030;51.532;6.766;2022-11-02T02:36:33;13.20;99.90
9980;DHT22;5030;51.532;6.766;2022-11-02T02:39:22;13.20;99.90
9980;DHT22;5030;51.532;6.766;2022-11-02T02:41:58;13.00;99.90
9980;DHT22;5030;51.532;6.766;2022-11-02T02:44:29;13.10;99.90
9980;DHT22;5030;51.532;6.766;2022-11-02T02:47:26;13.20;99.90
9980;DHT22;5030;51.532;6.766;2022-11-02T02:50:02;13.20;99.90
9980;DHT22;5030;51.532;6.766;2022-11-02T02:52:29;13.20;99.90
9980;DHT22;5030;51.532;6.766;2022-11-02T02:54:58;13.20;99.90
9980;DHT22;5030;51.532;6.766;2022-11-02T02:59:59;13.30;99.90
9980;DHT22;5030;51.532;6.766;2022-11-02T03:02:35;13.30;99.90
9980;DHT22;5030;51.532;6.766;2022-11-02T03:05:24;13.20;99.90
9980;DHT22;5030;51.532;6.766;2022-11-02T03:07:50;13.20;99.90
9980;DHT22;5030;51.532;6.766;2022-11-02T03:10:20;13.20;99.90
9980;DHT22;5030;51.532;6.766;2022-11-02T03:12:53;13.20;99.90
9980;DHT22;5030;51.532;6.766;2022-11-02T03:36:38;13.10;99.90
9980;DHT22;5030;51.532;6.766;2022-11-02T03:39:08;13.30;99.90
9980;DHT22;5030;51.532;6.766;2022-11-02T03:41:35;13.10;99.90
9980;DHT22;5030;51.532;6.766;2022-11-02T03:44:10;13.00;99.90
9980;DHT22;5030;51.532;6.766;2022-11-02T03:46:39;13.10;99.90
9980;DHT22;5030;51.532;6.766;2022-11-02T03:49:08;13.20;99.90
9980;DHT22;5030;51.532;6.766;2022-11-02T03:51:37;13.20;99.90
9980;DHT22;5030;51.532;6.766;2022-11-02T03:57:07;13.20;99.90
9980;DHT22;5030;51.532;6.766;2022-11-02T03:59:34;13.20;99.90
9980;DHT22;5030;51.532;6.766;2022-11-02T04:02:01;13.10;99.90
9980;DHT22;5030;51.532;6.766;2022-11-02T04:04:27;13.10;99.90
9980;DHT22;5030;51.532;6.766;2022-11-02T04:06:52;13.00;99.90
9980;DHT22;5030;51.532;6.766;2022-11-02T04:09:20;13.00;99.90
9980;DHT22;5030;51.532;6.766;2022-11-02T04:11:45;13.00;99.90
9980;DHT22;5030;51.532;6.766;2022-11-02T04:14:29;12.90;99.90
9980;DHT22;5030;51.532;6.766;2022-11-02T04:17:09;12.90;99.90
9980;DHT22;5030;51.532;6.766;2022-11-02T04:19:54;12.90;99.90
9980;DHT22;5030;51.532;6.766;2022-11-02T04:22:20;12.90;99.90
9980;DHT22;5030;51.532;6.766;2022-11-02T04:25:05;12.90;99.90
9980;DHT22;5030;51.532;6.766;2022-11-02T04:27:40;12.90;99.90
9980;DHT22;5030;51.532;6.766;2022-11-02T04:30:07;12.90;99.90
9980;DHT22;5030;51.532;6.766;2022-11-02T04:32:41;12.90;99.90
9980;DHT22;5030;51.532;6.766;2022-11-02T04:35:25;12.90;99.90
9980;DHT22;5030;51.532;6.766;2022-11-02T04:37:50;13.00;99.90
9980;DHT22;5030;51.532;6.766;2022-11-02T04:40:34;13.00;99.90
9980;DHT22;5030;51.532;6.766;2022-11-02T04:43:00;13.00;99.90
9980;DHT22;5030;51.532;6.766;2022-11-02T04:45:26;13.00;99.90
9980;DHT22;5030;51.532;6.766;2022-11-02T04:47:51;13.00;99.90
9980;DHT22;5030;51.532;6.766;2022-11-02T04:50:17;12.90;99.90
9980;DHT22;5030;51.532;6.766;2022-11-02T04:52:43;12.80;99.90
9980;DHT22;5030;51.532;6.766;2022-11-02T04:55:09;12.80;99.90
9980;DHT22;5030;51.532;6.766;2022-11-02T04:57:34;12.80;99.90
9980;DHT22;5030;51.532;6.766;2022-11-02T05:00:00;12.80;99.90
9980;DHT22;5030;51.532;6.766;2022-11-02T05:02:26;12.70;99.90
9980;DHT22;5030;51.532;6.766;2022-11-02T05:04:51;12.80;99.90
9980;DHT22;5030;51.532;6.766;2022-11-02T05:07:17;12.80;99.90
9980;DHT22;5030;51.532;6.766;2022-11-02T05:09:43;12.80;99.90
9980;DHT22;5030;51.532;6.766;2022-11-02T05:12:08;12.80;99.90
9980;DHT22;5030;51.532;6.766;2022-11-02T05:14:34;12.80;99.90
9980;DHT22;5030;51.532;6.766;2022-11-02T05:17:00;12.70;99.90
9980;DHT22;5030;51.532;6.766;2022-11-02T05:19:26;12.70;99.90
9980;DHT22;5030;51.532;6.766;2022-11-02T05:21:53;12.70;99.90
9980;DHT22;5030;51.532;6.766;2022-11-02T05:24:18;12.70;99.90
9980;DHT22;5030;51.532;6.766;2022-11-02T05:26:46;12.60;99.90
9980;DHT22;5030;51.532;6.766;2022-11-02T05:29:12;12.60;99.90
9980;DHT22;5030;51.532;6.766;2022-11-02T05:31:38;12.60;99.90
9980;DHT22;5030;51.532;6.766;2022-11-02T05:34:03;12.60;99.90
9980;DHT22;5030;51.532;6.766;2022-11-02T05:36:29;12.60;99.90
9980;DHT22;5030;51.532;6.766;2022-11-02T05:38:55;12.60;99.90
9980;DHT22;5030;51.532;6.766;2022-11-02T05:41:22;12.50;99.90
9980;DHT22;5030;51.532;6.766;2022-11-02T05:43:47;12.40;99.90
9980;DHT22;5030;51.532;6.766;2022-11-02T05:46:13;12.40;99.90
9980;DHT22;5030;51.532;6.766;2022-11-02T05:48:39;12.50;99.90
9980;DHT22;5030;51.532;6.766;2022-11-02T05:51:06;12.50;99.90
9980;DHT22;5030;51.532;6.766;2022-11-02T05:53:32;12.40;99.90
9980;DHT22;5030;51.532;6.766;2022-11-02T05:56:03;12.20;99.90
9980;DHT22;5030;51.532;6.766;2022-11-02T05:58:29;12.30;99.90
9980;DHT22;5030;51.532;6.766;2022-11-02T06:01:01;12.30;99.90
9980;DHT22;5030;51.532;6.766;2022-11-02T06:03:29;12.30;99.90
9980;DHT22;5030;51.532;6.766;2022-11-02T06:06:00;12.30;99.90
9980;DHT22;5030;51.532;6.766;2022-11-02T06:08:27;12.30;99.90
9980;DHT22;5030;51.532;6.766;2022-11-02T06:10:53;12.20;99.90
9980;DHT22;5030;51.532;6.766;2022-11-02T06:13:19;12.10;99.90
9980;DHT22;5030;51.532;6.766;2022-11-02T06:15:44;12.20;99.90
9980;DHT22;5030;51.532;6.766;2022-11-02T06:18:10;12.20;99.90
9980;DHT22;5030;51.532;6.766;2022-11-02T06:20:36;12.20;99.90
9980;DHT22;5030;51.532;6.766;2022-11-02T06:23:01;12.20;99.90
9980;DHT22;5030;51.532;6.766;2022-11-02T06:25:27;12.20;99.90
9980;DHT22;5030;51.532;6.766;2022-11-02T06:27:54;12.30;99.90
9980;DHT22;5030;51.532;6.766;2022-11-02T06:30:22;12.40;99.90
9980;DHT22;5030;51.532;6.766;2022-11-02T06:32:49;12.40;99.90
9980;DHT22;5030;51.532;6.766;2022-11-02T06:35:16;12.40;99.90
9980;DHT22;5030;51.532;6.766;2022-11-02T06:37:43;12.40;99.90
9980;DHT22;5030;51.532;6.766;2022-11-02T06:40:10;12.30;99.90
9980;DHT22;5030;51.532;6.766;2022-11-02T06:42:36;12.40;99.90
9980;DHT22;5030;51.532;6.766;2022-11-02T06:45:02;12.40;99.90
9980;DHT22;5030;51.532;6.766;2022-11-02T06:47:29;12.30;99.90
9980;DHT22;5030;51.532;6.766;2022-11-02T06:49:55;12.30;99.90
9980;DHT22;5030;51.532;6.766;2022-11-02T06:52:21;12.20;99.90
9980;DHT22;5030;51.532;6.766;2022-11-02T06:54:47;12.30;99.90
9980;DHT22;5030;51.532;6.766;2022-11-02T06:57:12;12.30;99.90
9980;DHT22;5030;51.532;6.766;2022-11-02T06:59:38;12.30;99.90
9980;DHT22;5030;51.532;6.766;2022-11-02T07:02:03;12.50;99.90
9980;DHT22;5030;51.532;6.766;2022-11-02T07:04:29;12.50;99.90
9980;DHT22;5030;51.532;6.766;2022-11-02T07:06:55;12.60;99.90
9980;DHT22;5030;51.532;6.766;2022-11-02T07:09:20;12.60;99.90
9980;DHT22;5030;51.532;6.766;2022-11-02T07:11:46;12.60;99.90
9980;DHT22;5030;51.532;6.766;2022-11-02T07:14:11;12.60;99.90
9980;DHT22;5030;51.532;6.766;2022-11-02T07:16:37;12.60;99.90
9980;DHT22;5030;51.532;6.766;2022-11-02T07:19:03;12.50;99.90
9980;DHT22;5030;51.532;6.766;2022-11-02T07:21:28;12.40;99.90
9980;DHT22;5030;51.532;6.766;2022-11-02T07:23:54;12.50;99.90
9980;DHT22;5030;51.532;6.766;2022-11-02T07:26:20;12.50;99.90
9980;DHT22;5030;51.532;6.766;2022-11-02T07:28:46;12.50;99.90
9980;DHT22;5030;51.532;6.766;2022-11-02T07:31:11;12.50;99.90
9980;DHT22;5030;51.532;6.766;2022-11-02T07:33:37;12.50;99.90
9980;DHT22;5030;51.532;6.766;2022-11-02T07:36:03;12.50;99.90
9980;DHT22;5030;51.532;6.766;2022-11-02T07:38:29;12.50;99.90
9980;DHT22;5030;51.532;6.766;2022-11-02T07:40:55;12.50;99.90
9980;DHT22;5030;51.532;6.766;2022-11-02T07:43:21;12.30;99.90
9980;DHT22;5030;51.532;6.766;2022-11-02T07:45:47;12.30;99.90
9980;DHT22;5030;51.532;6.766;2022-11-02T07:48:13;12.20;99.90
9980;DHT22;5030;51.532;6.766;2022-11-02T07:50:38;12.10;99.90
9980;DHT22;5030;51.532;6.766;2022-11-02T07:53:04;12.20;99.90
9980;DHT22;5030;51.532;6.766;2022-11-02T07:55:30;12.20;99.90
9980;DHT22;5030;51.532;6.766;2022-11-02T07:58:01;12.20;99.90
9980;DHT22;5030;51.532;6.766;2022-11-02T08:00:29;12.20;99.90
9980;DHT22;5030;51.532;6.766;2022-11-02T08:02:57;12.20;99.90
9980;DHT22;5030;51.532;6.766;2022-11-02T08:05:23;12.30;99.90
9980;DHT22;5030;51.532;6.766;2022-11-02T08:08:00;12.30;99.90
9980;DHT22;5030;51.532;6.766;2022-11-02T08:10:27;12.20;99.90
9980;DHT22;5030;51.532;6.766;2022-11-02T08:12:54;12.40;99.90
9980;DHT22;5030;51.532;6.766;2022-11-02T08:15:20;12.40;99.90
9980;DHT22;5030;51.532;6.766;2022-11-02T08:17:45;12.40;99.90
9980;DHT22;5030;51.532;6.766;2022-11-02T08:20:11;12.50;99.90
9980;DHT22;5030;51.532;6.766;2022-11-02T08:22:37;12.50;99.90
9980;DHT22;5030;51.532;6.766;2022-11-02T08:25:04;12.50;99.90
9980;DHT22;5030;51.532;6.766;2022-11-02T08:27:30;12.50;99.90
9980;DHT22;5030;51.532;6.766;2022-11-02T08:29:55;12.50;99.90
9980;DHT22;5030;51.532;6.766;2022-11-02T08:32:21;12.60;99.90
9980;DHT22;5030;51.532;6.766;2022-11-02T08:34:47;12.60;99.90
9980;DHT22;5030;51.532;6.766;2022-11-02T08:37:12;12.60;99.90
9980;DHT22;5030;51.532;6.766;2022-11-02T08:39:38;12.60;99.90
9980;DHT22;5030;51.532;6.766;2022-11-02T08:42:04;12.70;99.90
9980;DHT22;5030;51.532;6.766;2022-11-02T08:44:29;12.60;99.90
9980;DHT22;5030;51.532;6.766;2022-11-02T08:46:55;12.60;99.90
9980;DHT22;5030;51.532;6.766;2022-11-02T08:49:21;12.70;99.90
9980;DHT22;5030;51.532;6.766;2022-11-02T08:51:47;12.70;99.90
9980;DHT22;5030;51.532;6.766;2022-11-02T08:54:13;12.80;99.90
9980;DHT22;5030;51.532;6.766;2022-11-02T08:56:39;12.70;99.90
9980;DHT22;5030;51.532;6.766;2022-11-02T08:59:04;12.70;99.90
9980;DHT22;5030;51.532;6.766;2022-11-02T09:01:30;12.70;99.90
9980;DHT22;5030;51.532;6.766;2022-11-02T09:03:56;12.70;99.90
9980;DHT22;5030;51.532;6.766;2022-11-02T09:06:21;12.70;99.90
9980;DHT22;5030;51.532;6.766;2022-11-02T09:08:47;12.60;99.90
9980;DHT22;5030;51.532;6.766;2022-11-02T09:11:13;12.60;99.90
9980;DHT22;5030;51.532;6.766;2022-11-02T09:13:39;12.70;99.90
9980;DHT22;5030;51.532;6.766;2022-11-02T09:16:05;12.70;99.90
9980;DHT22;5030;51.532;6.766;2022-11-02T09:18:31;12.90;99.90
9980;DHT22;5030;51.532;6.766;2022-11-02T09:21:00;13.00;99.90
9980;DHT22;5030;51.532;6.766;2022-11-02T09:23:26;13.10;99.90
9980;DHT22;5030;51.532;6.766;2022-11-02T09:25:52;13.20;99.90
9980;DHT22;5030;51.532;6.766;2022-11-02T09:28:18;13.30;99.90
9980;DHT22;5030;51.532;6.766;2022-11-02T09:30:43;13.30;99.90
9980;DHT22;5030;51.532;6.766;2022-11-02T09:33:09;13.20;99.90
9980;DHT22;5030;51.532;6.766;2022-11-02T09:35:41;13.30;99.90
9980;DHT22;5030;51.532;6.766;2022-11-02T09:38:08;13.30;99.90
9980;DHT22;5030;51.532;6.766;2022-11-02T09:40:40;13.30;98.70
9980;DHT22;5030;51.532;6.766;2022-11-02T09:45:38;13.40;97.30
9980;DHT22;5030;51.532;6.766;2022-11-02T09:48:13;13.40;98.20
9980;DHT22;5030;51.532;6.766;2022-11-02T09:50:50;13.40;99.60
9980;DHT22;5030;51.532;6.766;2022-11-02T09:56:28;13.20;99.30
9980;DHT22;5030;51.532;6.766;2022-11-02T09:59:03;13.20;97.40
9980;DHT22;5030;51.532;6.766;2022-11-02T10:11:00;13.20;96.00
9980;DHT22;5030;51.532;6.766;2022-11-02T10:13:33;13.20;95.40
9980;DHT22;5030;51.532;6.766;2022-11-02T10:16:12;13.20;77.70
9980;DHT22;5030;51.532;6.766;2022-11-02T10:18:40;13.30;73.70
9980;DHT22;5030;51.532;6.766;2022-11-02T10:21:13;13.40;84.20
9980;DHT22;5030;51.532;6.766;2022-11-02T10:23:51;13.40;80.80
9980;DHT22;5030;51.532;6.766;2022-11-02T10:26:27;13.30;81.50
9980;DHT22;5030;51.532;6.766;2022-11-02T10:29:16;13.30;80.30
9980;DHT22;5030;51.532;6.766;2022-11-02T10:31:42;13.40;81.80
9980;DHT22;5030;51.532;6.766;2022-11-02T10:34:24;13.50;82.70
9980;DHT22;5030;51.532;6.766;2022-11-02T10:51:08;13.80;63.50
9980;DHT22;5030;51.532;6.766;2022-11-02T10:53:36;13.90;60.00
9980;DHT22;5030;51.532;6.766;2022-11-02T10:59:02;13.90;45.20
9980;DHT22;5030;51.532;6.766;2022-11-02T11:01:33;13.80;46.90
9980;DHT22;5030;51.532;6.766;2022-11-02T11:04:04;13.80;49.60
9980;DHT22;5030;51.532;6.766;2022-11-02T11:06:39;13.80;50.50
9980;DHT22;5030;51.532;6.766;2022-11-02T11:09:22;13.90;48.90
9980;DHT22;5030;51.532;6.766;2022-11-02T11:12:18;13.80;51.70
9980;DHT22;5030;51.532;6.766;2022-11-02T11:14:55;13.70;55.90
9980;DHT22;5030;51.532;6.766;2022-11-02T11:17:33;13.50;56.40
9980;DHT22;5030;51.532;6.766;2022-11-02T11:20:00;13.50;56.60
9980;DHT22;5030;51.532;6.766;2022-11-02T11:22:37;13.60;47.10
9980;DHT22;5030;51.532;6.766;2022-11-02T11:30:27;13.80;42.30
9980;DHT22;5030;51.532;6.766;2022-11-02T11:32:53;13.80;44.70
9980;DHT22;5030;51.532;6.766;2022-11-02T11:35:20;13.80;44.60
9980;DHT22;5030;51.532;6.766;2022-11-02T11:37:53;13.80;48.00
9980;DHT22;5030;51.532;6.766;2022-11-02T11:40:20;13.90;51.90
9980;DHT22;5030;51.532;6.766;2022-11-02T11:42:53;14.10;47.60
9980;DHT22;5030;51.532;6.766;2022-11-02T11:45:22;14.20;39.60
9980;DHT22;5030;51.532;6.766;2022-11-02T11:48:39;14.20;39.80
9980;DHT22;5030;51.532;6.766;2022-11-02T11:50:48;14.30;37.50
9980;DHT22;5030;51.532;6.766;2022-11-02T11:53:21;14.40;36.20
9980;DHT22;5030;51.532;6.766;2022-11-02T11:55:49;14.40;30.30
9980;DHT22;5030;51.532;6.766;2022-11-02T11:58:25;14.40;32.80
9980;DHT22;5030;51.532;6.766;2022-11-02T12:01:04;14.50;34.40
9980;DHT22;5030;51.532;6.766;2022-11-02T12:03:31;14.60;27.90
9980;DHT22;5030;51.532;6.766;2022-11-02T12:06:03;14.60;30.00
9980;DHT22;5030;51.532;6.766;2022-11-02T12:14:15;14.90;31.00
9980;DHT22;5030;51.532;6.766;2022-11-02T12:17:10;14.90;31.00
9980;DHT22;5030;51.532;6.766;2022-11-02T12:30:56;15.30;27.20
9980;DHT22;5030;51.532;6.766;2022-11-02T12:38:51;15.70;15.00
9980;DHT22;5030;51.532;6.766;2022-11-02T12:44:37;15.50;22.30
9980;DHT22;5030;51.532;6.766;2022-11-02T12:47:29;15.20;21.60
9980;DHT22;5030;51.532;6.766;2022-11-02T12:50:20;15.30;20.90
9980;DHT22;5030;51.532;6.766;2022-11-02T12:53:16;15.30;23.30
9980;DHT22;5030;51.532;6.766;2022-11-02T12:55:49;15.20;26.80
9980;DHT22;5030;51.532;6.766;2022-11-02T12:58:29;15.30;17.00
9980;DHT22;5030;51.532;6.766;2022-11-02T13:04:08;15.10;8.50
9980;DHT22;5030;51.532;6.766;2022-11-02T13:06:48;14.90;17.90
9980;DHT22;5030;51.532;6.766;2022-11-02T13:09:24;14.80;31.10
9980;DHT22;5030;51.532;6.766;2022-11-02T13:12:17;14.90;32.20
9980;DHT22;5030;51.532;6.766;2022-11-02T13:14:48;14.90;34.90
9980;DHT22;5030;51.532;6.766;2022-11-02T13:20:14;14.90;36.10
9980;DHT22;5030;51.532;6.766;2022-11-02T13:22:43;14.90;26.00
9980;DHT22;5030;51.532;6.766;2022-11-02T13:25:17;14.90;28.30
9980;DHT22;5030;51.532;6.766;2022-11-02T13:27:51;14.80;28.70
9980;DHT22;5030;51.532;6.766;2022-11-02T13:30:18;14.90;34.30
9980;DHT22;5030;51.532;6.766;2022-11-02T13:37:48;15.70;28.10
9980;DHT22;5030;51.532;6.766;2022-11-02T13:40:23;15.70;26.10
9980;DHT22;5030;51.532;6.766;2022-11-02T13:50:51;15.70;25.80
9980;DHT22;5030;51.532;6.766;2022-11-02T13:53:29;15.60;24.70
9980;DHT22;5030;51.532;6.766;2022-11-02T13:56:10;15.50;30.50
9980;DHT22;5030;51.532;6.766;2022-11-02T13:58:43;15.50;38.20
9980;DHT22;5030;51.532;6.766;2022-11-02T14:01:16;15.40;43.60
9980;DHT22;5030;51.532;6.766;2022-11-02T14:06:18;15.50;46.10
9980;DHT22;5030;51.532;6.766;2022-11-02T14:16:41;15.80;37.90
9980;DHT22;5030;51.532;6.766;2022-11-02T14:22:07;15.60;41.80
9980;DHT22;5030;51.532;6.766;2022-11-02T14:32:37;15.20;46.30
9980;DHT22;5030;51.532;6.766;2022-11-02T14:38:11;15.10;55.90
9980;DHT22;5030;51.532;6.766;2022-11-02T14:44:30;14.90;58.10
9980;DHT22;5030;51.532;6.766;2022-11-02T14:47:02;14.80;66.60
9980;DHT22;5030;51.532;6.766;2022-11-02T14:49:33;14.90;67.00
9980;DHT22;5030;51.532;6.766;2022-11-02T14:52:02;14.90;70.20
9980;DHT22;5030;51.532;6.766;2022-11-02T14:54:32;15.00;65.90
9980;DHT22;5030;51.532;6.766;2022-11-02T14:57:13;15.00;61.90
9980;DHT22;5030;51.532;6.766;2022-11-02T14:59:47;14.90;59.20
9980;DHT22;5030;51.532;6.766;2022-11-02T15:02:22;14.80;61.50
9980;DHT22;5030;51.532;6.766;2022-11-02T15:04:50;14.70;57.70
9980;DHT22;5030;51.532;6.766;2022-11-02T15:07:20;14.70;62.70
9980;DHT22;5030;51.532;6.766;2022-11-02T15:09:57;14.60;61.50
9980;DHT22;5030;51.532;6.766;2022-11-02T15:20:19;14.40;72.80
9980;DHT22;5030;51.532;6.766;2022-11-02T15:22:41;14.30;73.30
9980;DHT22;5030;51.532;6.766;2022-11-02T15:27:35;14.10;70.10
9980;DHT22;5030;51.532;6.766;2022-11-02T15:30:02;14.10;73.00
9980;DHT22;5030;51.532;6.766;2022-11-02T15:32:33;13.90;81.50
9980;DHT22;5030;51.532;6.766;2022-11-02T15:35:03;13.70;86.40
9980;DHT22;5030;51.532;6.766;2022-11-02T15:37:30;13.60;90.40
9980;DHT22;5030;51.532;6.766;2022-11-02T15:40:02;13.60;90.30
9980;DHT22;5030;51.532;6.766;2022-11-02T15:48:31;13.50;84.10
9980;DHT22;5030;51.532;6.766;2022-11-02T15:52:07;13.50;84.80
9980;DHT22;5030;51.532;6.766;2022-11-02T16:02:45;13.20;91.10
9980;DHT22;5030;51.532;6.766;2022-11-02T16:05:17;13.10;92.60
9980;DHT22;5030;51.532;6.766;2022-11-02T16:07:46;12.90;96.20
9980;DHT22;5030;51.532;6.766;2022-11-02T16:10:21;12.90;95.10
9980;DHT22;5030;51.532;6.766;2022-11-02T16:12:55;12.90;96.40
9980;DHT22;5030;51.532;6.766;2022-11-02T16:15:21;13.00;94.60
9980;DHT22;5030;51.532;6.766;2022-11-02T16:17:48;13.00;94.00
9980;DHT22;5030;51.532;6.766;2022-11-02T16:20:28;12.90;96.00
9980;DHT22;5030;51.532;6.766;2022-11-02T16:22:59;12.80;97.60
9980;DHT22;5030;51.532;6.766;2022-11-02T16:28:17;12.80;95.50
9980;DHT22;5030;51.532;6.766;2022-11-02T16:31:00;12.70;95.50
9980;DHT22;5030;51.532;6.766;2022-11-02T16:33:29;12.70;97.90
9980;DHT22;5030;51.532;6.766;2022-11-02T16:35:55;12.70;96.90
9980;DHT22;5030;51.532;6.766;2022-11-02T16:38:22;12.80;96.20
9980;DHT22;5030;51.532;6.766;2022-11-02T16:40:47;12.90;94.70
9980;DHT22;5030;51.532;6.766;2022-11-02T16:43:14;12.90;94.80
9980;DHT22;5030;51.532;6.766;2022-11-02T16:45:41;12.80;95.00
9980;DHT22;5030;51.532;6.766;2022-11-02T16:53:33;12.70;93.80
9980;DHT22;5030;51.532;6.766;2022-11-02T16:56:25;12.60;94.70
9980;DHT22;5030;51.532;6.766;2022-11-02T16:59:05;12.40;97.10
9980;DHT22;5030;51.532;6.766;2022-11-02T17:01:38;12.20;98.80
9980;DHT22;5030;51.532;6.766;2022-11-02T17:04:16;12.30;97.30
9980;DHT22;5030;51.532;6.766;2022-11-02T17:06:43;12.20;97.30
9980;DHT22;5030;51.532;6.766;2022-11-02T17:09:27;12.30;94.90
9980;DHT22;5030;51.532;6.766;2022-11-02T17:12:05;12.60;87.40
9980;DHT22;5030;51.532;6.766;2022-11-02T17:14:33;12.60;86.80
9980;DHT22;5030;51.532;6.766;2022-11-02T17:17:03;12.60;87.80
9980;DHT22;5030;51.532;6.766;2022-11-02T17:22:32;12.80;80.50
9980;DHT22;5030;51.532;6.766;2022-11-02T17:27:30;12.70;83.50
9980;DHT22;5030;51.532;6.766;2022-11-02T17:29:57;12.60;82.70
9980;DHT22;5030;51.532;6.766;2022-11-02T17:32:24;12.40;91.20
9980;DHT22;5030;51.532;6.766;2022-11-02T17:34:54;12.30;92.60
9980;DHT22;5030;51.532;6.766;2022-11-02T17:37:22;12.20;94.40
9980;DHT22;5030;51.532;6.766;2022-11-02T17:39:49;12.00;96.50
9980;DHT22;5030;51.532;6.766;2022-11-02T17:42:16;12.00;96.10
9980;DHT22;5030;51.532;6.766;2022-11-02T17:45:33;11.90;97.20
9980;DHT22;5030;51.532;6.766;2022-11-02T17:48:01;11.70;99.90
9980;DHT22;5030;51.532;6.766;2022-11-02T17:50:29;11.50;99.90
9980;DHT22;5030;51.532;6.766;2022-11-02T17:52:56;11.40;99.90
9980;DHT22;5030;51.532;6.766;2022-11-02T17:55:24;11.40;99.90
9980;DHT22;5030;51.532;6.766;2022-11-02T17:57:52;11.50;99.90
9980;DHT22;5030;51.532;6.766;2022-11-02T18:00:18;11.50;99.90
9980;DHT22;5030;51.532;6.766;2022-11-02T18:02:47;11.40;99.90
9980;DHT22;5030;51.532;6.766;2022-11-02T18:05:34;11.40;99.90
9980;DHT22;5030;51.532;6.766;2022-11-02T18:08:01;11.30;99.90
9980;DHT22;5030;51.532;6.766;2022-11-02T18:10:30;11.20;99.90
9980;DHT22;5030;51.532;6.766;2022-11-02T18:12:57;11.20;99.90
9980;DHT22;5030;51.532;6.766;2022-11-02T18:15:28;11.10;99.90
9980;DHT22;5030;51.532;6.766;2022-11-02T18:17:55;11.10;99.90
9980;DHT22;5030;51.532;6.766;2022-11-02T18:20:22;11.10;99.90
9980;DHT22;5030;51.532;6.766;2022-11-02T18:22:48;11.10;99.90
9980;DHT22;5030;51.532;6.766;2022-11-02T18:25:17;11.10;99.90
9980;DHT22;5030;51.532;6.766;2022-11-02T18:27:44;11.20;99.90
9980;DHT22;5030;51.532;6.766;2022-11-02T18:30:12;11.20;99.90
9980;DHT22;5030;51.532;6.766;2022-11-02T18:32:39;11.30;99.90
9980;DHT22;5030;51.532;6.766;2022-11-02T18:35:08;11.40;99.90
9980;DHT22;5030;51.532;6.766;2022-11-02T18:37:38;11.50;99.90
9980;DHT22;5030;51.532;6.766;2022-11-02T18:40:05;11.50;99.90
9980;DHT22;5030;51.532;6.766;2022-11-02T18:42:34;11.40;99.90
9980;DHT22;5030;51.532;6.766;2022-11-02T18:45:00;11.50;99.90
9980;DHT22;5030;51.532;6.766;2022-11-02T18:47:26;11.40;99.90
9980;DHT22;5030;51.532;6.766;2022-11-02T18:49:52;11.40;99.90
9980;DHT22;5030;51.532;6.766;2022-11-02T18:52:18;11.50;99.50
9980;DHT22;5030;51.532;6.766;2022-11-02T18:54:44;11.60;97.40
9980;DHT22;5030;51.532;6.766;2022-11-02T18:57:09;11.60;94.30
9980;DHT22;5030;51.532;6.766;2022-11-02T18:59:35;11.60;96.10
9980;DHT22;5030;51.532;6.766;2022-11-02T19:02:04;11.60;94.70
9980;DHT22;5030;51.532;6.766;2022-11-02T19:04:31;11.60;95.90
9980;DHT22;5030;51.532;6.766;2022-11-02T19:06:57;11.50;94.30
9980;DHT22;5030;51.532;6.766;2022-11-02T19:09:41;11.60;93.70
9980;DHT22;5030;51.532;6.766;2022-11-02T19:12:08;11.60;93.90
9980;DHT22;5030;51.532;6.766;2022-11-02T19:14:40;11.60;94.80
9980;DHT22;5030;51.532;6.766;2022-11-02T19:17:07;11.50;95.50
9980;DHT22;5030;51.532;6.766;2022-11-02T19:19:34;11.70;94.10
9980;DHT22;5030;51.532;6.766;2022-11-02T19:22:00;11.80;93.40
9980;DHT22;5030;51.532;6.766;2022-11-02T19:24:26;11.80;92.50
9980;DHT22;5030;51.532;6.766;2022-11-02T19:26:52;11.80;92.50
9980;DHT22;5030;51.532;6.766;2022-11-02T19:29:18;11.90;92.50
9980;DHT22;5030;51.532;6.766;2022-11-02T19:31:44;11.80;91.40
9980;DHT22;5030;51.532;6.766;2022-11-02T19:34:10;11.70;94.00
9980;DHT22;5030;51.532;6.766;2022-11-02T19:36:36;11.70;94.50